createdAt,value
2017-10-31T00:00:13.085Z,8.20
2017-10-31T00:01:19.900Z,6.90
2017-10-31T00:02:26.641Z,7.10
2017-10-31T00:03:33.448Z,7.70
2017-10-31T00:04:40.156Z,8.30
2017-10-31T00:05:46.958Z,9.00
2017-10-31T00:06:53.665Z,9.00
2017-10-31T00:08:00.486Z,7.90
2017-10-31T00:09:07.195Z,9.40
2017-10-31T00:10:13.901Z,9.70
2017-10-31T00:11:20.648Z,10.30
2017-10-31T00:12:27.360Z,10.70
2017-10-31T00:13:34.113Z,9.70
2017-10-31T00:14:40.873Z,10.10
2017-10-31T00:15:47.581Z,10.00
2017-10-31T00:16:54.365Z,11.00
2017-10-31T00:18:01.378Z,9.40
2017-10-31T00:19:08.124Z,9.20
2017-10-31T00:20:14.884Z,9.40
2017-10-31T00:21:21.587Z,8.80
2017-10-31T00:22:28.314Z,9.60
2017-10-31T00:23:35.049Z,9.10
2017-10-31T00:24:41.820Z,7.40
2017-10-31T00:25:48.628Z,8.10
2017-10-31T00:26:55.353Z,7.50
2017-10-31T00:28:02.073Z,8.30
2017-10-31T00:29:08.872Z,7.00
2017-10-31T00:30:15.699Z,7.60
2017-10-31T00:31:22.453Z,7.60
2017-10-31T00:32:29.150Z,8.00
2017-10-31T00:33:35.950Z,6.80
2017-10-31T00:34:48.575Z,6.90
2017-10-31T00:35:49.846Z,7.20
2017-10-31T00:36:56.602Z,8.50
2017-10-31T00:38:03.403Z,9.00
2017-10-31T00:39:10.154Z,7.80
2017-10-31T00:40:16.924Z,7.70
2017-10-31T00:41:23.697Z,6.90
2017-10-31T00:42:30.544Z,7.20
2017-10-31T00:43:37.316Z,6.80
2017-10-31T00:44:44.112Z,6.50
2017-10-31T00:45:50.967Z,7.20
2017-10-31T00:46:57.756Z,7.40
2017-10-31T00:48:04.572Z,6.50
2017-10-31T00:49:11.473Z,7.20
2017-10-31T00:50:18.224Z,7.30
2017-10-31T00:51:24.994Z,7.30
2017-10-31T00:52:31.802Z,7.30
2017-10-31T00:53:38.609Z,6.70
2017-10-31T00:54:45.376Z,6.70
2017-10-31T00:55:52.230Z,6.20
2017-10-31T00:56:59.084Z,7.00
2017-10-31T00:58:05.821Z,6.50
2017-10-31T00:58:24.439Z,6.70
2017-10-31T00:59:31.214Z,6.50
2017-10-31T01:00:37.968Z,5.80
2017-10-31T01:01:44.721Z,6.00
2017-10-31T01:02:51.492Z,5.60
2017-10-31T01:03:58.314Z,5.90
2017-10-31T01:05:05.082Z,5.20
2017-10-31T01:06:11.877Z,6.30
2017-10-31T01:07:18.711Z,6.00
2017-10-31T01:08:25.455Z,6.70
2017-10-31T01:09:32.249Z,5.60
2017-10-31T01:10:39.029Z,6.20
2017-10-31T01:11:45.793Z,5.40
2017-10-31T01:12:52.580Z,5.30
2017-10-31T01:13:59.356Z,5.80
2017-10-31T01:15:06.209Z,6.90
2017-10-31T01:16:12.997Z,5.80
2017-10-31T01:17:19.743Z,6.90
2017-10-31T01:18:26.537Z,6.20
2017-10-31T01:19:33.324Z,5.40
2017-10-31T01:20:40.073Z,5.80
2017-10-31T01:21:46.832Z,6.40
2017-10-31T01:22:53.600Z,5.90
2017-10-31T01:24:00.404Z,6.80
2017-10-31T01:25:07.181Z,5.90
2017-10-31T01:26:13.940Z,6.00
2017-10-31T01:27:20.772Z,6.30
2017-10-31T01:28:27.534Z,6.50
2017-10-31T01:29:34.314Z,6.20
2017-10-31T01:30:41.053Z,5.60
2017-10-31T01:31:47.827Z,6.00
2017-10-31T01:32:54.611Z,6.80
2017-10-31T01:34:01.392Z,6.40
2017-10-31T01:35:08.270Z,6.70
2017-10-31T01:36:15.044Z,6.30
2017-10-31T01:37:21.832Z,6.50
2017-10-31T01:38:28.661Z,6.00
2017-10-31T01:39:35.424Z,6.90
2017-10-31T01:40:42.245Z,6.70
2017-10-31T01:41:49.089Z,6.00
2017-10-31T01:42:57.433Z,6.50
2017-10-31T01:44:02.727Z,6.20
2017-10-31T01:45:09.552Z,6.10
2017-10-31T01:46:16.326Z,5.40
2017-10-31T01:47:23.116Z,6.30
2017-10-31T01:48:29.939Z,5.70
2017-10-31T01:49:36.764Z,5.40
2017-10-31T01:50:43.564Z,5.70
2017-10-31T01:51:50.368Z,5.20
2017-10-31T01:52:57.123Z,5.70
2017-10-31T01:54:03.991Z,5.70
2017-10-31T01:55:10.837Z,6.30
2017-10-31T01:56:17.606Z,5.20
2017-10-31T01:57:24.414Z,5.80
2017-10-31T01:58:31.244Z,5.90
2017-10-31T01:59:37.985Z,5.10
2017-10-31T02:00:44.795Z,5.50
2017-10-31T02:01:51.641Z,5.80
2017-10-31T02:02:58.421Z,5.90
2017-10-31T02:04:05.238Z,5.20
2017-10-31T02:05:12.077Z,5.50
2017-10-31T02:06:18.856Z,5.40
2017-10-31T02:07:25.623Z,5.50
2017-10-31T02:08:32.476Z,5.50
2017-10-31T02:09:39.221Z,5.00
2017-10-31T02:10:46.138Z,4.90
2017-10-31T02:11:52.957Z,5.30
2017-10-31T02:12:59.726Z,5.90
2017-10-31T02:14:06.485Z,5.20
2017-10-31T02:15:13.354Z,5.20
2017-10-31T02:16:20.109Z,5.40
2017-10-31T02:17:26.883Z,5.00
2017-10-31T02:18:33.612Z,5.80
2017-10-31T02:19:40.504Z,5.70
2017-10-31T02:20:47.361Z,5.30
2017-10-31T02:21:54.227Z,4.90
2017-10-31T02:23:01.059Z,5.60
2017-10-31T02:24:08.046Z,5.30
2017-10-31T02:25:15.065Z,5.60
2017-10-31T02:26:21.969Z,5.00
2017-10-31T02:27:28.846Z,5.70
2017-10-31T02:28:35.676Z,5.70
2017-10-31T02:29:42.600Z,5.40
2017-10-31T02:30:49.428Z,6.50
2017-10-31T02:31:56.268Z,5.10
2017-10-31T02:33:03.108Z,5.40
2017-10-31T02:34:09.930Z,5.50
2017-10-31T02:35:16.792Z,6.40
2017-10-31T02:36:23.600Z,6.30
2017-10-31T02:37:30.453Z,6.40
2017-10-31T02:38:37.270Z,6.40
2017-10-31T02:39:44.128Z,6.30
2017-10-31T02:40:50.950Z,6.40
2017-10-31T02:41:57.817Z,6.40
2017-10-31T02:43:04.675Z,6.50
2017-10-31T02:44:11.514Z,6.50
2017-10-31T02:45:18.586Z,6.20
2017-10-31T02:46:25.712Z,6.10
2017-10-31T02:47:32.730Z,6.20
2017-10-31T02:48:39.555Z,5.80
2017-10-31T02:49:46.452Z,6.00
2017-10-31T02:50:53.279Z,6.10
2017-10-31T02:52:00.106Z,6.00
2017-10-31T02:53:06.995Z,6.30
2017-10-31T02:54:13.821Z,5.50
2017-10-31T02:55:20.717Z,5.50
2017-10-31T02:56:27.592Z,6.00
2017-10-31T02:57:34.495Z,5.50
2017-10-31T02:58:41.365Z,5.30
2017-10-31T02:59:48.249Z,6.50
2017-10-31T03:00:55.107Z,5.70
2017-10-31T03:02:01.988Z,5.50
2017-10-31T03:03:08.933Z,5.10
2017-10-31T03:04:15.772Z,6.20
2017-10-31T03:05:22.654Z,5.50
2017-10-31T03:06:29.492Z,5.40
2017-10-31T03:07:36.377Z,4.70
2017-10-31T03:08:43.293Z,5.20
2017-10-31T03:09:50.156Z,5.20
2017-10-31T03:10:57.055Z,6.30
2017-10-31T03:12:04.257Z,5.80
2017-10-31T03:13:10.661Z,5.20
2017-10-31T03:14:17.482Z,5.50
2017-10-31T03:15:24.270Z,5.10
2017-10-31T03:16:31.085Z,4.70
2017-10-31T03:17:37.872Z,4.90
2017-10-31T03:18:44.690Z,4.60
2017-10-31T03:19:51.646Z,4.70
2017-10-31T03:20:58.496Z,5.00
2017-10-31T03:22:05.421Z,4.80
2017-10-31T03:23:12.328Z,4.80
2017-10-31T03:24:19.221Z,4.30
2017-10-31T03:25:26.125Z,4.10
2017-10-31T03:26:33.413Z,4.30
2017-10-31T03:27:40.167Z,4.70
2017-10-31T03:28:47.004Z,4.70
2017-10-31T03:29:53.865Z,4.80
2017-10-31T03:31:00.746Z,5.10
2017-10-31T03:32:07.644Z,4.80
2017-10-31T03:33:14.471Z,5.00
2017-10-31T03:34:21.284Z,4.80
2017-10-31T03:35:28.152Z,5.60
2017-10-31T03:36:35.063Z,5.00
2017-10-31T03:37:41.921Z,5.30
2017-10-31T03:38:48.805Z,4.60
2017-10-31T03:39:55.678Z,5.10
2017-10-31T03:41:02.526Z,5.20
2017-10-31T03:42:09.374Z,4.30
2017-10-31T03:43:16.274Z,4.80
2017-10-31T03:44:23.337Z,4.70
2017-10-31T03:45:30.113Z,4.50
2017-10-31T03:46:36.995Z,5.10
2017-10-31T03:47:43.825Z,4.80
2017-10-31T03:48:50.714Z,5.20
2017-10-31T03:49:57.680Z,5.00
2017-10-31T03:51:04.540Z,4.60
2017-10-31T03:52:11.319Z,4.70
2017-10-31T03:53:18.214Z,4.50
2017-10-31T03:54:25.080Z,5.40
2017-10-31T03:55:31.989Z,4.60
2017-10-31T03:56:38.868Z,4.80
2017-10-31T03:57:45.752Z,4.80
2017-10-31T03:58:52.620Z,5.20
2017-10-31T03:59:59.546Z,5.20
2017-10-31T04:01:06.402Z,4.00
2017-10-31T04:02:13.306Z,4.50
2017-10-31T04:03:20.184Z,4.50
2017-10-31T04:04:27.094Z,4.70
2017-10-31T04:05:33.917Z,5.40
2017-10-31T04:06:40.684Z,4.50
2017-10-31T04:07:47.490Z,4.70
2017-10-31T04:08:54.418Z,5.10
2017-10-31T04:10:01.272Z,5.40
2017-10-31T04:11:08.152Z,5.10
2017-10-31T04:12:15.032Z,5.30
2017-10-31T04:13:21.901Z,4.40
2017-10-31T04:14:28.817Z,5.10
2017-10-31T04:15:35.640Z,5.00
2017-10-31T04:16:42.605Z,4.60
2017-10-31T04:17:49.395Z,5.00
2017-10-31T04:18:56.163Z,5.00
2017-10-31T04:20:02.991Z,4.80
2017-10-31T04:21:09.884Z,5.10
2017-10-31T04:22:16.621Z,4.50
2017-10-31T04:23:23.433Z,4.60
2017-10-31T04:24:30.216Z,5.00
2017-10-31T04:25:37.004Z,4.90
2017-10-31T04:26:43.809Z,4.10
2017-10-31T04:27:50.577Z,4.70
2017-10-31T04:28:57.361Z,5.50
2017-10-31T04:30:04.232Z,5.40
2017-10-31T04:31:11.046Z,5.50
2017-10-31T04:32:17.817Z,5.10
2017-10-31T04:33:24.638Z,4.80
2017-10-31T04:34:31.428Z,5.40
2017-10-31T04:35:38.192Z,7.60
2017-10-31T04:36:45.049Z,6.90
2017-10-31T04:37:51.816Z,6.80
2017-10-31T04:38:58.861Z,7.00
2017-10-31T04:40:05.640Z,6.00
2017-10-31T04:41:12.449Z,6.80
2017-10-31T04:42:19.284Z,7.00
2017-10-31T04:43:26.085Z,6.90
2017-10-31T04:44:32.869Z,6.70
2017-10-31T04:45:39.729Z,6.00
2017-10-31T04:46:46.529Z,5.40
2017-10-31T04:47:53.345Z,5.40
2017-10-31T04:49:00.166Z,5.00
2017-10-31T04:50:06.952Z,5.70
2017-10-31T04:51:13.776Z,5.60
2017-10-31T04:52:20.569Z,5.60
2017-10-31T04:53:27.356Z,5.30
2017-10-31T04:54:34.172Z,4.90
2017-10-31T04:55:40.988Z,5.60
2017-10-31T04:56:47.840Z,6.10
2017-10-31T04:57:54.824Z,5.30
2017-10-31T04:59:01.714Z,5.00
2017-10-31T05:00:08.571Z,6.40
2017-10-31T05:01:15.517Z,5.30
2017-10-31T05:02:22.332Z,4.40
2017-10-31T05:03:29.141Z,5.20
2017-10-31T05:04:35.920Z,4.20
2017-10-31T05:05:42.765Z,4.90
2017-10-31T05:06:49.524Z,4.90
2017-10-31T05:07:56.272Z,4.60
2017-10-31T05:09:03.041Z,5.00
2017-10-31T05:10:09.929Z,4.70
2017-10-31T05:11:16.688Z,4.90
2017-10-31T05:12:23.451Z,4.70
2017-10-31T05:13:30.267Z,5.20
2017-10-31T05:14:37.002Z,5.20
2017-10-31T05:15:44.041Z,4.80
2017-10-31T05:16:50.817Z,4.50
2017-10-31T05:17:57.640Z,5.10
2017-10-31T05:19:04.481Z,4.70
2017-10-31T05:20:11.332Z,4.70
2017-10-31T05:21:18.100Z,4.90
2017-10-31T05:22:24.918Z,5.00
2017-10-31T05:23:31.700Z,4.90
2017-10-31T05:24:38.461Z,5.10
2017-10-31T05:25:45.353Z,5.90
2017-10-31T05:26:52.173Z,5.10
2017-10-31T05:27:58.981Z,5.20
2017-10-31T05:29:05.796Z,5.70
2017-10-31T05:30:12.612Z,5.00
2017-10-31T05:31:19.464Z,5.10
2017-10-31T05:32:26.211Z,5.10
2017-10-31T05:33:32.990Z,4.90
2017-10-31T05:34:39.863Z,5.60
2017-10-31T05:35:46.613Z,5.10
2017-10-31T05:36:53.436Z,5.20
2017-10-31T05:38:00.244Z,5.20
2017-10-31T05:39:07.249Z,4.80
2017-10-31T05:40:14.174Z,5.20
2017-10-31T05:41:20.948Z,5.00
2017-10-31T05:42:27.813Z,5.50
2017-10-31T05:43:34.596Z,5.00
2017-10-31T05:44:41.446Z,5.40
2017-10-31T05:45:48.242Z,5.70
2017-10-31T05:46:55.018Z,5.60
2017-10-31T05:48:01.805Z,6.00
2017-10-31T05:49:08.656Z,5.90
2017-10-31T05:50:15.421Z,5.60
2017-10-31T05:51:22.197Z,6.30
2017-10-31T05:52:28.954Z,5.70
2017-10-31T05:53:35.719Z,5.50
2017-10-31T05:54:42.514Z,5.20
2017-10-31T05:55:49.318Z,5.00
2017-10-31T05:56:56.117Z,5.10
2017-10-31T05:58:02.901Z,5.70
2017-10-31T05:59:09.680Z,5.90
2017-10-31T06:00:16.584Z,6.00
2017-10-31T06:01:23.373Z,5.50
2017-10-31T06:02:30.148Z,6.10
2017-10-31T06:03:36.969Z,5.50
2017-10-31T06:04:43.760Z,5.20
2017-10-31T06:05:50.554Z,5.20
2017-10-31T06:06:57.473Z,5.50
2017-10-31T06:08:04.305Z,5.20
2017-10-31T06:09:11.169Z,5.30
2017-10-31T06:10:17.941Z,5.60
2017-10-31T06:11:24.741Z,4.90
2017-10-31T06:12:31.564Z,5.60
2017-10-31T06:13:38.409Z,5.30
2017-10-31T06:14:45.153Z,5.40
2017-10-31T06:15:51.989Z,5.00
2017-10-31T06:16:58.783Z,5.40
2017-10-31T06:18:05.566Z,4.80
2017-10-31T06:19:12.508Z,5.40
2017-10-31T06:20:19.281Z,5.00
2017-10-31T06:21:26.198Z,4.90
2017-10-31T06:22:33.040Z,4.70
2017-10-31T06:23:39.964Z,5.00
2017-10-31T06:24:47.267Z,4.80
2017-10-31T06:25:55.136Z,4.80
2017-10-31T06:27:02.821Z,5.90
2017-10-31T06:28:09.866Z,5.00
2017-10-31T06:29:16.717Z,5.20
2017-10-31T06:30:23.646Z,5.40
2017-10-31T06:31:32.847Z,5.60
2017-10-31T06:32:39.657Z,5.30
2017-10-31T06:33:46.457Z,5.60
2017-10-31T06:34:53.273Z,5.80
2017-10-31T06:36:00.181Z,4.60
2017-10-31T06:37:06.969Z,4.90
2017-10-31T06:38:13.818Z,4.60
2017-10-31T06:39:20.601Z,4.80
2017-10-31T06:40:27.402Z,5.20
2017-10-31T06:41:34.234Z,4.80
2017-10-31T06:42:41.040Z,4.40
2017-10-31T06:43:47.881Z,5.20
2017-10-31T06:44:54.670Z,5.00
2017-10-31T06:46:01.435Z,4.90
2017-10-31T06:47:09.056Z,5.00
2017-10-31T06:48:18.113Z,5.00
2017-10-31T06:49:22.397Z,4.80
2017-10-31T06:50:29.157Z,5.10
2017-10-31T06:51:35.965Z,5.30
2017-10-31T06:52:42.753Z,5.20
2017-10-31T06:53:49.561Z,5.70
2017-10-31T06:54:56.380Z,4.50
2017-10-31T06:56:03.159Z,4.70
2017-10-31T06:57:09.924Z,4.90
2017-10-31T06:58:16.791Z,5.60
2017-10-31T06:59:23.504Z,5.00
2017-10-31T07:00:30.296Z,5.00
2017-10-31T07:01:37.069Z,4.80
2017-10-31T07:02:43.869Z,4.90
2017-10-31T07:03:50.657Z,5.10
2017-10-31T07:04:57.498Z,4.90
2017-10-31T07:06:04.273Z,4.60
2017-10-31T07:07:11.089Z,4.80
2017-10-31T07:08:17.881Z,4.20
2017-10-31T07:09:24.825Z,4.80
2017-10-31T07:10:31.610Z,5.00
2017-10-31T07:11:38.506Z,4.40
2017-10-31T07:12:45.300Z,4.90
2017-10-31T07:13:52.101Z,4.40
2017-10-31T07:14:58.933Z,4.90
2017-10-31T07:16:05.747Z,4.10
2017-10-31T07:17:12.558Z,4.30
2017-10-31T07:18:19.387Z,4.50
2017-10-31T07:19:26.297Z,4.80
2017-10-31T07:20:33.120Z,4.60
2017-10-31T07:21:39.903Z,5.00
2017-10-31T07:22:46.805Z,5.60
2017-10-31T07:23:53.581Z,5.30
2017-10-31T07:25:00.373Z,4.80
2017-10-31T07:26:07.273Z,4.90
2017-10-31T07:27:14.088Z,4.90
2017-10-31T07:28:21.100Z,5.00
2017-10-31T07:29:27.899Z,4.80
2017-10-31T07:30:34.697Z,5.80
2017-10-31T07:31:41.484Z,5.40
2017-10-31T07:32:48.294Z,5.40
2017-10-31T07:33:55.077Z,5.20
2017-10-31T07:35:01.993Z,6.80
2017-10-31T07:36:08.899Z,5.30
2017-10-31T07:37:15.724Z,5.80
2017-10-31T07:38:22.505Z,6.30
2017-10-31T07:39:29.449Z,5.70
2017-10-31T07:40:36.282Z,6.70
2017-10-31T07:41:43.061Z,6.20
2017-10-31T07:42:49.888Z,6.30
2017-10-31T07:43:56.778Z,6.70
2017-10-31T07:45:03.650Z,6.40
2017-10-31T07:46:10.480Z,7.00
2017-10-31T07:47:17.324Z,6.50
2017-10-31T07:48:24.089Z,6.40
2017-10-31T07:49:30.927Z,7.20
2017-10-31T07:50:37.705Z,6.80
2017-10-31T07:51:44.522Z,6.60
2017-10-31T07:52:51.460Z,6.20
2017-10-31T07:53:58.296Z,6.10
2017-10-31T07:55:05.458Z,6.50
2017-10-31T07:56:12.561Z,7.30
2017-10-31T07:57:19.337Z,7.10
2017-10-31T07:58:26.148Z,7.80
2017-10-31T07:59:32.950Z,8.00
2017-10-31T08:00:39.740Z,8.40
2017-10-31T08:01:46.612Z,9.10
2017-10-31T08:02:53.399Z,9.60
2017-10-31T08:04:00.209Z,7.20
2017-10-31T08:05:07.278Z,6.90
2017-10-31T08:06:14.374Z,6.30
2017-10-31T08:07:21.193Z,6.30
2017-10-31T08:08:27.960Z,7.00
2017-10-31T08:09:35.118Z,6.40
2017-10-31T08:10:41.605Z,6.20
2017-10-31T08:11:48.532Z,6.40
2017-10-31T08:12:55.322Z,6.30
2017-10-31T08:14:02.277Z,6.90
2017-10-31T08:15:09.184Z,5.70
2017-10-31T08:16:16.037Z,6.40
2017-10-31T08:17:22.930Z,6.60
2017-10-31T08:18:29.810Z,6.70
2017-10-31T08:19:36.625Z,7.00
2017-10-31T08:20:43.480Z,7.10
2017-10-31T08:21:50.264Z,8.00
2017-10-31T08:22:57.298Z,7.30
2017-10-31T08:24:04.172Z,7.30
2017-10-31T08:25:10.969Z,7.10
2017-10-31T08:26:17.773Z,7.00
2017-10-31T08:27:24.688Z,7.30
2017-10-31T08:28:31.588Z,7.70
2017-10-31T08:29:38.361Z,7.50
2017-10-31T08:30:45.217Z,8.00
2017-10-31T08:31:51.984Z,7.00
2017-10-31T08:32:59.109Z,8.10
2017-10-31T08:34:05.890Z,8.60
2017-10-31T08:35:12.704Z,7.10
2017-10-31T08:36:19.508Z,9.00
2017-10-31T08:37:26.312Z,9.10
2017-10-31T08:38:33.220Z,9.30
2017-10-31T08:39:40.006Z,10.00
2017-10-31T08:40:46.789Z,9.10
2017-10-31T08:41:53.713Z,11.90
2017-10-31T08:43:00.565Z,10.20
2017-10-31T08:44:07.476Z,9.50
2017-10-31T08:45:14.293Z,8.40
2017-10-31T08:46:21.069Z,7.80
2017-10-31T08:47:27.905Z,8.30
2017-10-31T08:48:34.736Z,8.70
2017-10-31T08:49:41.523Z,8.90
2017-10-31T08:50:48.309Z,7.70
2017-10-31T08:51:55.082Z,7.40
2017-10-31T08:53:01.857Z,7.60
2017-10-31T08:54:08.718Z,8.10
2017-10-31T08:55:15.464Z,6.70
2017-10-31T08:56:22.284Z,7.50
2017-10-31T08:57:29.286Z,8.50
2017-10-31T08:58:36.143Z,7.70
2017-10-31T08:59:42.910Z,8.40
2017-10-31T09:00:49.673Z,8.80
2017-10-31T09:01:56.453Z,7.50
2017-10-31T09:03:03.354Z,8.20
2017-10-31T09:04:10.219Z,7.80
2017-10-31T09:05:17.125Z,9.30
2017-10-31T09:06:23.878Z,9.10
2017-10-31T09:07:30.697Z,8.70
2017-10-31T09:08:37.529Z,8.20
2017-10-31T09:09:44.329Z,8.20
2017-10-31T09:10:51.430Z,8.50
2017-10-31T09:11:58.209Z,8.60
2017-10-31T09:13:05.109Z,8.20
2017-10-31T09:14:11.860Z,7.80
2017-10-31T09:15:18.733Z,7.70
2017-10-31T09:16:25.885Z,8.00
2017-10-31T09:17:32.685Z,9.10
2017-10-31T09:18:39.467Z,8.30
2017-10-31T09:19:46.316Z,7.30
2017-10-31T09:20:53.128Z,7.60
2017-10-31T09:21:59.864Z,8.60
2017-10-31T09:23:06.649Z,7.30
2017-10-31T09:24:13.385Z,8.10
2017-10-31T09:25:20.257Z,8.00
2017-10-31T09:26:27.044Z,7.60
2017-10-31T09:27:33.816Z,8.40
2017-10-31T09:28:40.657Z,8.30
2017-10-31T09:29:47.440Z,9.00
2017-10-31T09:30:54.243Z,7.80
2017-10-31T09:32:01.066Z,8.50
2017-10-31T09:33:07.857Z,7.70
2017-10-31T09:34:14.624Z,7.50
2017-10-31T09:35:21.465Z,7.80
2017-10-31T09:36:28.284Z,7.60
2017-10-31T09:37:35.135Z,7.70
2017-10-31T09:38:42.100Z,7.40
2017-10-31T09:39:48.989Z,8.20
2017-10-31T09:40:55.837Z,7.70
2017-10-31T09:42:02.626Z,8.70
2017-10-31T09:43:09.418Z,8.50
2017-10-31T09:44:16.229Z,8.30
2017-10-31T09:45:23.024Z,9.00
2017-10-31T09:46:29.862Z,8.70
2017-10-31T09:47:36.764Z,8.20
2017-10-31T09:48:43.645Z,8.10
2017-10-31T09:49:50.412Z,8.60
2017-10-31T09:50:57.213Z,8.90
2017-10-31T09:52:04.065Z,8.80
2017-10-31T09:53:10.888Z,9.00
2017-10-31T09:54:17.642Z,9.80
2017-10-31T09:55:24.448Z,9.80
2017-10-31T09:56:31.272Z,10.00
2017-10-31T09:57:38.059Z,9.60
2017-10-31T09:58:44.888Z,10.10
2017-10-31T09:59:51.669Z,9.10
2017-10-31T10:00:58.450Z,9.50
2017-10-31T10:02:05.349Z,10.70
2017-10-31T10:03:12.129Z,10.50
2017-10-31T10:04:18.928Z,10.90
2017-10-31T10:05:25.771Z,11.00
2017-10-31T10:06:32.549Z,9.90
2017-10-31T10:07:39.350Z,10.00
2017-10-31T10:08:46.193Z,10.50
2017-10-31T10:09:52.990Z,11.20
2017-10-31T10:10:59.791Z,9.90
2017-10-31T10:12:06.581Z,11.70
2017-10-31T10:13:13.388Z,12.50
2017-10-31T10:14:20.219Z,11.20
2017-10-31T10:15:27.020Z,10.90
2017-10-31T10:16:33.803Z,11.40
2017-10-31T10:17:40.637Z,11.10
2017-10-31T10:18:47.458Z,11.80
2017-10-31T10:19:54.237Z,11.80
2017-10-31T10:21:01.020Z,11.30
2017-10-31T10:22:07.864Z,11.40
2017-10-31T10:23:14.756Z,10.90
2017-10-31T10:24:21.656Z,11.20
2017-10-31T10:25:28.417Z,12.10
2017-10-31T10:26:35.177Z,11.90
2017-10-31T10:27:41.925Z,15.70
2017-10-31T10:28:48.747Z,14.10
2017-10-31T10:29:55.526Z,14.70
2017-10-31T10:31:02.338Z,15.30
2017-10-31T10:32:09.140Z,13.20
2017-10-31T10:33:15.921Z,10.90
2017-10-31T10:34:22.733Z,12.40
2017-10-31T10:35:29.588Z,12.70
2017-10-31T10:36:36.367Z,10.60
2017-10-31T10:37:43.157Z,11.50
2017-10-31T10:38:49.988Z,11.80
2017-10-31T10:39:56.896Z,12.40
2017-10-31T10:41:03.737Z,13.50
2017-10-31T10:42:10.540Z,12.50
2017-10-31T10:43:17.325Z,12.20
2017-10-31T10:44:24.301Z,13.00
2017-10-31T10:45:31.102Z,12.40
2017-10-31T10:46:37.937Z,13.20
2017-10-31T10:47:44.681Z,13.10
2017-10-31T10:48:51.512Z,13.20
2017-10-31T10:49:58.354Z,13.00
2017-10-31T10:51:05.124Z,13.10
2017-10-31T10:52:11.924Z,13.70
2017-10-31T10:53:18.796Z,13.40
2017-10-31T10:54:25.656Z,13.40
2017-10-31T10:55:32.414Z,14.30
2017-10-31T10:56:39.225Z,15.80
2017-10-31T10:57:46.085Z,16.30
2017-10-31T10:58:52.988Z,16.70
2017-10-31T10:59:59.774Z,16.70
2017-10-31T11:01:06.636Z,15.00
2017-10-31T11:02:13.523Z,12.80
2017-10-31T11:03:20.312Z,12.30
2017-10-31T11:04:27.057Z,13.30
2017-10-31T11:05:34.609Z,13.30
2017-10-31T11:06:40.948Z,13.30
2017-10-31T11:07:47.726Z,12.80
2017-10-31T11:08:54.500Z,12.90
2017-10-31T11:10:01.377Z,13.90
2017-10-31T11:11:08.190Z,13.00
2017-10-31T11:12:14.952Z,12.90
2017-10-31T11:13:21.777Z,13.80
2017-10-31T11:14:28.557Z,13.20
2017-10-31T11:15:35.340Z,13.60
2017-10-31T11:16:42.270Z,13.40
2017-10-31T11:17:49.051Z,12.60
2017-10-31T11:18:55.886Z,13.00
2017-10-31T11:20:02.649Z,13.50
2017-10-31T11:21:09.513Z,14.10
2017-10-31T11:22:16.345Z,12.90
2017-10-31T11:23:23.120Z,12.80
2017-10-31T11:24:30.144Z,11.90
2017-10-31T11:25:36.946Z,12.40
2017-10-31T11:26:43.707Z,13.00
2017-10-31T11:27:50.541Z,13.40
2017-10-31T11:29:02.462Z,13.00
2017-10-31T11:30:04.233Z,12.30
2017-10-31T11:31:11.069Z,12.70
2017-10-31T11:32:17.888Z,12.10
2017-10-31T11:33:24.630Z,11.90
2017-10-31T11:34:31.470Z,12.60
2017-10-31T11:35:38.268Z,11.60
2017-10-31T11:36:45.163Z,12.00
2017-10-31T11:37:52.265Z,11.40
2017-10-31T11:38:59.060Z,12.10
2017-10-31T11:40:05.857Z,12.40
2017-10-31T11:41:12.608Z,11.80
2017-10-31T11:42:19.501Z,11.90
2017-10-31T11:43:26.333Z,12.10
2017-10-31T11:44:33.140Z,10.90
2017-10-31T11:45:39.981Z,11.80
2017-10-31T11:46:46.782Z,11.00
2017-10-31T11:47:53.533Z,11.70
2017-10-31T11:49:00.381Z,9.30
2017-10-31T11:50:07.169Z,8.80
2017-10-31T11:51:13.920Z,7.50
2017-10-31T11:52:20.741Z,8.80
2017-10-31T11:53:27.580Z,8.40
2017-10-31T11:54:34.372Z,7.30
2017-10-31T11:55:41.151Z,7.60
2017-10-31T11:56:47.953Z,8.00
2017-10-31T11:57:54.712Z,8.10
2017-10-31T11:59:01.972Z,8.40
2017-10-31T12:00:08.284Z,7.90
2017-10-31T12:01:15.078Z,8.00
2017-10-31T12:02:21.950Z,7.70
2017-10-31T12:03:28.717Z,7.90
2017-10-31T12:04:35.511Z,8.60
2017-10-31T12:05:42.340Z,9.00
2017-10-31T12:06:49.139Z,7.60
2017-10-31T12:07:55.930Z,8.20
2017-10-31T12:09:02.745Z,7.90
2017-10-31T12:10:09.604Z,7.60
2017-10-31T12:11:16.408Z,8.00
2017-10-31T12:12:23.305Z,8.20
2017-10-31T12:13:30.183Z,8.70
2017-10-31T12:14:37.072Z,8.80
2017-10-31T12:15:43.896Z,8.20
2017-10-31T12:16:50.717Z,8.90
2017-10-31T12:17:57.510Z,9.10
2017-10-31T12:19:04.305Z,8.90
2017-10-31T12:20:11.206Z,8.30
2017-10-31T12:21:18.075Z,8.70
2017-10-31T12:22:24.944Z,9.30
2017-10-31T12:23:31.875Z,8.70
2017-10-31T12:24:38.752Z,8.70
2017-10-31T12:25:45.649Z,8.60
2017-10-31T12:26:52.541Z,8.60
2017-10-31T12:27:59.389Z,9.20
2017-10-31T12:29:06.281Z,8.40
2017-10-31T12:30:14.067Z,8.20
2017-10-31T12:31:20.053Z,8.80
2017-10-31T12:32:26.982Z,8.80
2017-10-31T12:33:33.813Z,9.60
2017-10-31T12:34:40.680Z,8.40
2017-10-31T12:35:47.642Z,9.30
2017-10-31T12:36:54.495Z,9.20
2017-10-31T12:38:01.326Z,10.00
2017-10-31T12:39:08.117Z,9.00
2017-10-31T12:40:14.900Z,9.30
2017-10-31T12:41:21.740Z,8.20
2017-10-31T12:42:28.533Z,8.40
2017-10-31T12:43:35.414Z,8.60
2017-10-31T12:44:42.200Z,9.20
2017-10-31T12:45:49.020Z,8.80
2017-10-31T12:46:55.793Z,9.10
2017-10-31T12:48:02.565Z,8.80
2017-10-31T12:49:09.373Z,9.00
2017-10-31T12:50:16.177Z,9.20
2017-10-31T12:51:22.973Z,9.50
2017-10-31T12:52:29.780Z,9.30
2017-10-31T12:53:36.738Z,9.30
2017-10-31T12:54:43.720Z,8.50
2017-10-31T12:55:50.529Z,8.80
2017-10-31T12:56:57.510Z,8.70
2017-10-31T12:58:04.238Z,8.40
2017-10-31T12:59:11.021Z,8.60
2017-10-31T13:00:17.892Z,9.20
2017-10-31T13:01:24.776Z,9.60
2017-10-31T13:02:31.688Z,9.40
2017-10-31T13:03:38.477Z,8.90
2017-10-31T13:04:45.272Z,9.40
2017-10-31T13:05:52.101Z,9.30
2017-10-31T13:06:59.006Z,9.00
2017-10-31T13:08:05.876Z,8.70
2017-10-31T13:09:12.687Z,8.50
2017-10-31T13:10:19.489Z,8.60
2017-10-31T13:11:26.277Z,9.40
2017-10-31T13:12:33.108Z,9.50
2017-10-31T13:13:39.851Z,9.40
2017-10-31T13:14:46.661Z,10.00
2017-10-31T13:15:53.436Z,8.60
2017-10-31T13:17:00.234Z,8.60
2017-10-31T13:18:07.117Z,7.90
2017-10-31T13:19:13.888Z,8.30
2017-10-31T13:20:20.657Z,9.40
2017-10-31T13:21:27.480Z,9.60
2017-10-31T13:22:34.233Z,8.70
2017-10-31T13:23:41.045Z,10.00
2017-10-31T13:24:47.873Z,9.50
2017-10-31T13:25:54.671Z,8.50
2017-10-31T13:27:01.469Z,8.70
2017-10-31T13:28:08.522Z,8.90
2017-10-31T13:29:15.650Z,8.20
2017-10-31T13:30:22.716Z,8.70
2017-10-31T13:31:29.780Z,8.70
2017-10-31T13:32:36.889Z,8.90
2017-10-31T13:33:44.267Z,8.60
2017-10-31T13:34:50.824Z,7.80
2017-10-31T13:35:57.974Z,8.70
2017-10-31T13:37:04.716Z,8.80
2017-10-31T13:38:11.768Z,8.70
2017-10-31T13:39:18.484Z,8.00
2017-10-31T13:40:25.577Z,9.10
2017-10-31T13:41:32.253Z,8.60
2017-10-31T13:42:39.372Z,8.80
2017-10-31T13:43:46.450Z,8.50
2017-10-31T13:44:53.324Z,9.20
2017-10-31T13:46:00.117Z,8.50
2017-10-31T13:47:06.945Z,8.30
2017-10-31T13:48:13.922Z,8.00
2017-10-31T13:49:20.659Z,7.80
2017-10-31T13:50:27.791Z,7.90
2017-10-31T13:51:34.420Z,8.50
2017-10-31T13:52:41.413Z,8.20
2017-10-31T13:53:48.189Z,8.30
2017-10-31T13:54:55.371Z,8.20
2017-10-31T13:56:02.298Z,7.90
2017-10-31T13:57:09.061Z,8.00
2017-10-31T13:58:15.840Z,7.70
2017-10-31T13:59:22.620Z,8.50
2017-10-31T14:00:29.406Z,8.30
2017-10-31T14:01:36.384Z,8.10
2017-10-31T14:02:43.249Z,8.10
2017-10-31T14:03:50.236Z,7.60
2017-10-31T14:04:57.334Z,8.60
2017-10-31T14:06:04.424Z,8.30
2017-10-31T14:07:11.457Z,8.20
2017-10-31T14:08:18.389Z,8.10
2017-10-31T14:09:25.375Z,8.20
2017-10-31T14:10:32.537Z,7.80
2017-10-31T14:11:39.649Z,8.30
2017-10-31T14:12:46.869Z,8.40
2017-10-31T14:13:53.917Z,7.20
2017-10-31T14:15:00.708Z,8.40
2017-10-31T14:16:07.545Z,8.40
2017-10-31T14:17:14.334Z,8.20
2017-10-31T14:18:21.137Z,8.20
2017-10-31T14:19:27.944Z,8.60
2017-10-31T14:20:34.990Z,8.10
2017-10-31T14:21:41.905Z,7.70
2017-10-31T14:22:49.120Z,8.50
2017-10-31T14:23:55.896Z,8.00
2017-10-31T14:25:02.648Z,7.60
2017-10-31T14:26:09.437Z,8.00
2017-10-31T14:27:16.234Z,8.20
2017-10-31T14:28:23.087Z,8.50
2017-10-31T14:29:29.674Z,8.20
2017-10-31T14:30:36.464Z,7.80
2017-10-31T14:31:43.240Z,8.20
2017-10-31T14:32:50.025Z,8.10
2017-10-31T14:33:56.877Z,8.00
2017-10-31T14:35:03.649Z,8.40
2017-10-31T14:36:10.692Z,8.10
2017-10-31T14:37:17.463Z,8.50
2017-10-31T14:38:24.215Z,8.50
2017-10-31T14:39:31.308Z,8.00
2017-10-31T14:40:38.202Z,8.40
2017-10-31T14:41:45.036Z,8.40
2017-10-31T14:42:51.865Z,8.40
2017-10-31T14:43:58.620Z,8.20